Terminal Aerodrome Forecast
Issued by NWS

Current Version | Previous Version | Text Only | Print | Product List | Glossary Off
Versions: 1 2 3 4 5 6 7 8 9 10 11 12 13 14 15 16 17 18 19 20 21 22

000
FTUS41 KPBZ 191741
TAFMGW
TAF
KMGW 191741Z 1918/2018 24004KT P6SM BKN040
     FM192000 27006KT P6SM VCTS BKN035CB
     FM200100 32004KT P6SM BKN035
     FM201100 06004KT P6SM BKN035=

USA.gov is the U.S. government's official web portal to all federal, state and local government web resources and services.